Capanema, Brazil
Current Conditions -  °F | °C
As of 10:00 AM on Monday 20 Oct 2014 (Local Time) from SBBE Reporting Station
Scattered Clouds Scattered Clouds  
Wind Chill: 86°   Ceiling: Unl
Heat Index: 93°   Visibility: 6mi
Dew Point: 73°   Wind: 7mph
Humidity: 66%   Direction: 70°ENE
Pressure: 29.91"   Gusts: NA
Location:  1.19°S, 47.18°W
Report Text: SBBE 201300Z 07006KT 9999 SCT025 30/23 Q1013
Loading
Personal Weather Stations






























Interactive Weather Map
Tropical Storm Tracking
New forecast layout! Learn more

10-Day Weather Forecast

Advertisements
Track Severe Weather on mobile